• Join FlightAware (Why Join?)
  • Login
  • US Flag 
11:36AM EDT


 

Airport Tracker/Info


-or-


 

Live Flight TrackerFlight Track Log ✈ VH-ZCV ✈ 11-Jul-2013 ✈ YMEN / MEB - YMBU

Flight Track Log - Related Links

Times and Time Zones

All times are in EDT time to prevent confusion due to time zone crossing. See the VH-ZCV flight status page for this flight to view local times or setup timezone preferences in your user account.

Time Position Orientation Groundspeed Altitude Reporting Facility
EDT Latitude Longitude Course Direction KTS MPH feet Rate Location/Type
07:52PM -37.7374 144.8996 245° Southwest 80 92 900  Level Aus ATC (RADAR)
07:53PM -37.7474 144.8723 245° Southwest 84 97 1,700 720 Climbing Aus ATC (RADAR)
07:54PM -37.7566 144.8527 239° Southwest 86 99 2,200 660 Climbing Aus ATC (RADAR)
07:55PM -37.7641 144.8376 238° Southwest 87 100 2,600 540 Climbing Aus ATC (RADAR)
07:55PM -37.7750 144.8131 241° Southwest 99 114 3,000 240 Climbing Aus ATC (RADAR)
07:56PM -37.7778 144.7715 265° West 122 140 3,100 360 Climbing Aus ATC (RADAR)
07:57PM -37.7820 144.7334 262° West 103 119 3,800 660 Climbing Aus ATC (RADAR)
07:58PM -37.7859 144.7050 260° West 97 112 4,400 420 Climbing Aus ATC (RADAR)
07:59PM -37.7847 144.6758 273° West 114 131 4,500 120 Climbing Aus ATC (RADAR)
08:00PM -37.7779 144.6531 291° West 116 133 4,600 60 Climbing Aus ATC (RADAR)
08:00PM -37.7676 144.6198 291° West 120 138 4,600  Level Aus ATC (RADAR)
08:01PM -37.7549 144.5749 290° West 124 143 4,600  Level Aus ATC (RADAR)
08:03PM -37.7293 144.5375 311° West 118 136 4,600 -60 Level Aus ATC (RADAR)
08:03PM -37.7103 144.5117 313° West 119 137 4,500  Descending Aus ATC (RADAR)
08:04PM -37.6913 144.4867 314° West 115 132 4,600 60 Climbing Aus ATC (RADAR)
08:05PM -37.6819 144.4741 313° West 116 133 4,600  Level Aus ATC (RADAR)
08:05PM -37.6690 144.4562 312° West 118 136 4,600  Level Aus ATC (RADAR)
08:06PM -37.6564 144.4377 311° West 119 137 4,600  Level Aus ATC (RADAR)
08:09PM -37.5787 144.3460 360° North -1,440 Descending Aus ATC (Calculated)
08:10PM -37.5787 144.3460 317° Northwest  Level Aus ATC (Calculated)
08:11PM -37.5542 144.3171 317° Northwest  Level Estimated
08:12PM -37.5521 144.3146 317° Northwest  Level Estimated
08:13PM -37.5335 144.2927 317° Northwest  Level Estimated
08:13PM -37.5107 144.2659 245° Southwest  Level Aus ATC (Calculated)
08:13PM -37.5107 144.2658 317° Northwest  Level Aus ATC (Calculated)
08:15PM -37.4756 144.2246 317° Northwest  Level Estimated
08:16PM -37.4570 144.2027 317° Northwest  Level Estimated
08:17PM -37.4384 144.1809 317° Northwest  Level Estimated
08:18PM -37.4198 144.1590 317° Northwest  Level Estimated
08:19PM -37.4011 144.1372 317° Northwest  Level Estimated
08:20PM -37.3825 144.1154 317° Northwest  Level Estimated
08:21PM -37.3638 144.0936 317° Northwest  Level Estimated
08:22PM -37.3452 144.0717 317° Northwest  Level Estimated
08:23PM -37.3266 144.0499 317° Northwest  Level Estimated
08:24PM -37.3079 144.0281 317° Northwest  Level Estimated
08:25PM -37.2892 144.0063 317° Northwest  Level Estimated
08:26PM -37.2706 143.9846 317° Northwest  Level Estimated
08:27PM -37.2519 143.9628 317° Northwest  Level Estimated
08:28PM -37.2333 143.9411 317° Northwest  Level Estimated
08:29PM -37.2146 143.9194 317° Northwest  Level Estimated
08:30PM -37.1959 143.8976 317° Northwest  Level Estimated
08:31PM -37.1772 143.8759 317° Northwest  Level Estimated
08:32PM -37.1586 143.8542 317° Northwest  Level Estimated
08:33PM -37.1399 143.8325 317° Northwest  Level Estimated
08:34PM -37.1212 143.8109 317° Northwest  Level Estimated
08:35PM -37.1025 143.7892 317° Northwest  Level Estimated
08:36PM -37.0838 143.7675 317° Northwest  Level Estimated
08:37PM -37.0651 143.7459 317° Northwest  Level Estimated
08:38PM -37.0463 143.7243 317° Northwest  Level Estimated
08:39PM -37.0331 143.7089 317° Northwest  Level Estimated
08:40PM -37.0331 143.7089 349° North  Level Estimated